Time;durP1;ratioP1;P1;durP2;ratioP2;P2;SDS_P1;SDS_P2;PMS_P1;PMS_P2;Temp;Humidity;BMP_temperature;BMP_pressure;BME280_temperature;BME280_humidity;BME280_pressure;Samples;Min_cycle;Max_cycle;Signal;HPM_P1;HPM_P2
2022/09/06 03:02:57;;;;;;;9.20;7.30;;;19.50;99.90;;;;;;4958553;28;20459;-84
2022/09/06 03:05:25;;;;;;;8.37;7.57;;;19.50;99.90;;;;;;4985417;28;20474;-86
2022/09/06 03:07:53;;;;;;;8.20;7.40;;;19.50;99.90;;;;;;5017872;28;20482;-85
2022/09/06 03:10:20;;;;;;;8.93;7.80;;;19.40;99.90;;;;;;5021820;28;20457;-84
2022/09/06 03:12:47;;;;;;;11.90;8.10;;;19.30;99.90;;;;;;5039338;28;20453;-86
2022/09/06 03:15:15;;;;;;;11.13;7.90;;;19.20;99.90;;;;;;5038069;28;20480;-86
2022/09/06 03:17:43;;;;;;;7.87;7.27;;;19.20;99.90;;;;;;5039518;28;20449;-85
2022/09/06 03:20:12;;;;;;;8.77;7.87;;;19.00;99.90;;;;;;5036343;28;20469;-84
2022/09/06 03:22:39;;;;;;;9.70;8.33;;;18.90;99.90;;;;;;5018596;28;20943;-85
2022/09/06 03:25:07;;;;;;;10.30;9.30;;;18.70;99.90;;;;;;5019389;28;20473;-84
2022/09/06 03:27:34;;;;;;;9.53;8.73;;;18.70;99.90;;;;;;5037074;28;20489;-82
2022/09/06 03:30:01;;;;;;;10.20;8.87;;;18.70;99.90;;;;;;5034756;28;20457;-83
2022/09/06 03:32:28;;;;;;;12.47;7.30;;;18.70;99.90;;;;;;5016279;28;20476;-82
2022/09/06 03:34:55;;;;;;;9.20;8.27;;;18.50;99.90;;;;;;5014589;28;20568;-83
2022/09/06 03:37:23;;;;;;;9.47;8.70;;;18.40;99.90;;;;;;5014152;28;20955;-82
2022/09/06 03:39:50;;;;;;;9.73;8.33;;;18.40;99.90;;;;;;5014196;28;20446;-84
2022/09/06 03:42:16;;;;;;;11.33;10.20;;;18.40;99.90;;;;;;5014354;28;20822;-83
2022/09/06 03:44:43;;;;;;;11.07;10.07;;;18.40;99.90;;;;;;5014151;28;20484;-83
2022/09/06 03:47:10;;;;;;;11.23;10.23;;;18.40;99.90;;;;;;5013952;28;20489;-83
2022/09/06 03:49:37;;;;;;;14.27;9.50;;;18.40;99.90;;;;;;5013703;28;20469;-84
2022/09/06 03:52:04;;;;;;;10.73;9.73;;;18.40;99.90;;;;;;5014229;28;20445;-83
2022/09/06 03:54:32;;;;;;;9.90;9.00;;;18.40;99.90;;;;;;5017723;28;20937;-84
2022/09/06 03:56:59;;;;;;;12.10;10.87;;;18.30;99.90;;;;;;5018109;28;20454;-83
2022/09/06 03:59:25;;;;;;;12.00;10.80;;;18.20;99.90;;;;;;5019893;28;20465;-84
2022/09/06 04:01:52;;;;;;;12.93;11.63;;;18.20;99.90;;;;;;5013739;28;20464;-86
2022/09/06 04:04:19;;;;;;;12.47;10.80;;;18.20;99.90;;;;;;5013141;28;20453;-84
2022/09/06 04:06:45;;;;;;;14.07;10.80;;;18.20;99.90;;;;;;5029426;28;20491;-84
2022/09/06 04:09:13;;;;;;;11.13;10.03;;;18.20;99.90;;;;;;5032918;28;20452;-85
2022/09/06 04:11:41;;;;;;;12.67;11.57;;;18.30;99.90;;;;;;5020794;28;20468;-84
2022/09/06 04:14:08;;;;;;;12.67;11.30;;;18.30;99.90;;;;;;5021070;28;20477;-85
2022/09/06 04:16:35;;;;;;;10.57;9.67;;;18.30;99.90;;;;;;5022632;28;20457;-83
2022/09/06 04:19:03;;;;;;;11.10;10.00;;;18.10;99.90;;;;;;5022046;28;20454;-85
2022/09/06 04:21:30;;;;;;;13.43;11.60;;;18.20;99.90;;;;;;5024108;28;20468;-84
2022/09/06 04:23:56;;;;;;;11.40;10.30;;;18.20;99.90;;;;;;5022956;28;20459;-84
2022/09/06 04:26:23;;;;;;;11.87;10.77;;;18.20;99.90;;;;;;5031405;28;20491;-85
2022/09/06 04:28:51;;;;;;;12.47;11.17;;;18.30;99.90;;;;;;5036003;28;20456;-84
2022/09/06 04:31:18;;;;;;;12.37;11.33;;;18.30;99.90;;;;;;5022428;28;20457;-85
2022/09/06 04:33:45;;;;;;;12.10;10.97;;;18.20;99.90;;;;;;5016817;28;20453;-85
2022/09/06 04:36:12;;;;;;;12.70;11.30;;;18.20;99.90;;;;;;5028343;28;20476;-85
2022/09/06 04:38:40;;;;;;;13.33;11.30;;;18.20;99.90;;;;;;5046310;28;20471;-86
2022/09/06 04:41:08;;;;;;;12.63;11.40;;;18.10;99.90;;;;;;5048255;28;20454;-85
2022/09/06 04:43:35;;;;;;;12.27;11.17;;;18.10;99.90;;;;;;5050095;28;20448;-85
2022/09/06 04:46:05;;;;;;;11.23;10.10;;;18.10;99.90;;;;;;5040142;28;20473;-86
2022/09/06 04:48:32;;;;;;;13.27;10.10;;;18.10;99.90;;;;;;5029581;28;20950;-86
2022/09/06 04:50:59;;;;;;;11.53;10.53;;;18.10;99.90;;;;;;5038387;28;20462;-86
2022/09/06 04:53:25;;;;;;;12.30;11.03;;;18.10;99.90;;;;;;5049824;28;20484;-85
2022/09/06 04:55:52;;;;;;;11.83;10.73;;;18.10;99.90;;;;;;5048098;28;20480;-85
2022/09/06 04:58:19;;;;;;;9.97;9.10;;;18.00;99.90;;;;;;5044351;28;20461;-86
2022/09/06 05:00:46;;;;;;;10.50;9.60;;;18.00;99.90;;;;;;5051711;28;20444;-84
2022/09/06 05:03:14;;;;;;;11.17;10.10;;;18.00;99.90;;;;;;5037770;28;21021;-84
2022/09/06 05:05:41;;;;;;;10.73;9.63;;;18.00;99.90;;;;;;5037900;28;20483;-85
2022/09/06 05:08:08;;;;;;;12.07;10.57;;;18.00;99.90;;;;;;5036458;28;20484;-83
2022/09/06 05:10:34;;;;;;;9.63;8.73;;;18.00;99.90;;;;;;5036999;28;20466;-83
2022/09/06 05:13:01;;;;;;;10.37;9.50;;;17.90;99.90;;;;;;5037240;28;20455;-84
2022/09/06 05:15:28;;;;;;;11.83;10.63;;;17.90;99.90;;;;;;5037811;28;21119;-83
2022/09/06 05:18:03;;;;;;;11.47;10.30;;;17.90;99.90;;;;;;5036907;28;20451;-82
2022/09/06 05:20:31;;;;;;;10.57;9.60;;;17.90;99.90;;;;;;5037104;28;20511;-83
2022/09/06 05:22:58;;;;;;;10.80;9.80;;;17.90;99.90;;;;;;5034780;28;20466;-83
2022/09/06 05:25:24;;;;;;;11.00;9.97;;;18.00;99.90;;;;;;5020257;28;20845;-83
2022/09/06 05:27:51;;;;;;;10.43;9.53;;;18.00;99.90;;;;;;5030880;28;20506;-86
2022/09/06 05:30:18;;;;;;;10.27;9.47;;;18.00;99.90;;;;;;5041771;28;20945;-85
2022/09/06 05:32:45;;;;;;;11.40;10.40;;;18.10;99.90;;;;;;5043089;28;20444;-86
2022/09/06 05:35:12;;;;;;;10.70;9.90;;;18.00;99.90;;;;;;5042441;28;20475;-87
2022/09/06 05:37:40;;;;;;;11.20;10.03;;;18.10;99.90;;;;;;5035182;28;20472;-84
2022/09/06 05:40:07;;;;;;;11.90;10.73;;;18.10;99.90;;;;;;5022821;28;20465;-86
2022/09/06 05:42:34;;;;;;;10.43;9.53;;;18.10;99.90;;;;;;5022360;28;20454;-83
2022/09/06 05:45:01;;;;;;;10.67;9.67;;;18.10;99.90;;;;;;5025938;28;20488;-85
2022/09/06 05:47:29;;;;;;;11.13;10.23;;;18.10;99.90;;;;;;5029360;28;20515;-84
2022/09/06 05:49:57;;;;;;;9.80;9.03;;;18.10;99.90;;;;;;5022128;28;20518;-84
2022/09/06 05:52:23;;;;;;;10.60;9.70;;;18.20;99.90;;;;;;5026689;28;20460;-86
2022/09/06 05:54:51;;;;;;;11.47;10.43;;;18.20;99.90;;;;;;5034893;28;20492;-84
2022/09/06 05:57:18;;;;;;;11.53;10.37;;;18.30;99.90;;;;;;5020940;28;20448;-84
2022/09/06 05:59:45;;;;;;;10.33;9.50;;;18.30;99.90;;;;;;5032978;28;20455;-84
2022/09/06 06:02:12;;;;;;;10.53;9.53;;;18.40;99.90;;;;;;5046717;28;20455;-83
2022/09/06 06:04:38;;;;;;;10.97;9.80;;;18.40;99.90;;;;;;5041679;28;20475;-83
2022/09/06 06:07:05;;;;;;;11.53;10.53;;;18.40;99.90;;;;;;5037641;28;20491;-84
2022/09/06 06:09:32;;;;;;;11.40;9.63;;;18.50;99.90;;;;;;5036153;28;20453;-85
2022/09/06 06:12:00;;;;;;;10.37;9.67;;;18.50;99.90;;;;;;5034913;28;20500;-83
2022/09/06 06:14:27;;;;;;;10.27;9.47;;;18.60;99.90;;;;;;5037773;28;20472;-83
2022/09/06 06:16:53;;;;;;;10.67;9.60;;;18.60;99.90;;;;;;5039344;28;20502;-85
2022/09/06 06:19:20;;;;;;;11.40;10.40;;;18.70;99.90;;;;;;5019268;28;20449;-86
2022/09/06 06:21:47;;;;;;;9.93;9.13;;;18.70;99.90;;;;;;5021126;28;20446;-87
2022/09/06 06:24:13;;;;;;;11.10;10.10;;;18.80;99.90;;;;;;5018888;28;20461;-86
2022/09/06 06:26:40;;;;;;;11.97;10.77;;;18.80;99.90;;;;;;5020713;28;20946;-86
2022/09/06 06:29:08;;;;;;;10.73;9.83;;;18.80;99.90;;;;;;5020125;28;20457;-86
2022/09/06 06:31:37;;;;;;;10.83;9.93;;;18.70;99.90;;;;;;5021042;28;20457;-86
2022/09/06 06:34:04;;;;;;;10.07;9.17;;;18.70;99.90;;;;;;5019592;28;20453;-86
2022/09/06 06:36:33;;;;;;;10.90;9.90;;;18.70;99.90;;;;;;5015021;28;20451;-86
2022/09/06 06:39:01;;;;;;;10.50;9.50;;;18.80;99.90;;;;;;5017741;28;20959;-86
2022/09/06 06:41:30;;;;;;;12.87;10.10;;;18.80;99.90;;;;;;5019174;28;20450;-86
2022/09/06 06:43:59;;;;;;;12.40;11.30;;;18.80;99.90;;;;;;5020781;28;20461;-86
2022/09/06 06:46:28;;;;;;;12.40;11.50;;;18.80;99.90;;;;;;5015797;28;20473;-86
2022/09/06 06:48:55;;;;;;;12.90;11.80;;;18.90;99.90;;;;;;5019930;28;20491;-86
2022/09/06 06:51:24;;;;;;;13.30;12.00;;;19.00;99.90;;;;;;5018710;28;20458;-82
2022/09/06 06:53:51;;;;;;;12.67;11.10;;;19.00;99.90;;;;;;5021933;28;20540;-84
2022/09/06 06:56:20;;;;;;;14.13;11.50;;;19.10;99.90;;;;;;5033440;28;21207;-86
2022/09/06 06:58:49;;;;;;;13.20;10.47;;;19.20;99.90;;;;;;5036947;28;20452;-86
2022/09/06 07:01:15;;;;;;;10.77;9.57;;;19.20;99.90;;;;;;5021647;28;20453;-86
2022/09/06 07:03:44;;;;;;;10.30;9.40;;;19.30;99.90;;;;;;5022216;28;20481;-84
2022/09/06 07:06:10;;;;;;;9.73;8.93;;;19.40;99.90;;;;;;5021813;28;20479;-85
2022/09/06 07:08:37;;;;;;;10.67;9.67;;;19.50;99.90;;;;;;5020546;28;20497;-85
2022/09/06 07:11:05;;;;;;;9.30;8.50;;;19.60;99.90;;;;;;5016877;28;20968;-83
2022/09/06 07:13:32;;;;;;;9.87;9.03;;;19.70;99.90;;;;;;5021552;28;20465;-85
2022/09/06 07:16:13;;;;;;;9.47;8.47;;;19.80;99.90;;;;;;5039437;28;20473;-84
2022/09/06 07:18:41;;;;;;;10.87;9.87;;;19.90;99.90;;;;;;5036202;28;20446;-84
2022/09/06 07:21:11;;;;;;;10.30;9.23;;;20.00;99.90;;;;;;5030585;28;20445;-84
2022/09/06 07:23:38;;;;;;;9.70;8.73;;;20.10;99.90;;;;;;5029756;28;20451;-84
2022/09/06 07:26:06;;;;;;;8.20;7.50;;;20.20;99.90;;;;;;5031331;28;20553;-84
2022/09/06 07:28:33;;;;;;;10.27;8.43;;;20.20;99.90;;;;;;5030568;28;20488;-84
2022/09/06 07:31:00;;;;;;;9.00;8.20;;;20.30;99.90;;;;;;5030681;28;20447;-84
2022/09/06 07:33:27;;;;;;;8.70;7.00;;;20.30;99.90;;;;;;5031689;28;20451;-84
2022/09/06 07:35:56;;;;;;;8.47;7.33;;;20.30;99.90;;;;;;5031166;28;20481;-84
2022/09/06 07:38:24;;;;;;;6.60;6.00;;;20.40;99.90;;;;;;5031759;28;20477;-84
2022/09/06 07:40:54;;;;;;;8.17;6.60;;;20.40;99.90;;;;;;5031184;28;20446;-85
2022/09/06 07:43:21;;;;;;;7.20;6.60;;;20.40;99.90;;;;;;5030247;28;20444;-84
2022/09/06 07:45:48;;;;;;;7.10;6.60;;;20.50;99.90;;;;;;5030999;28;20480;-84
2022/09/06 07:48:15;;;;;;;7.27;5.87;;;20.60;99.90;;;;;;5030936;28;20487;-84
2022/09/06 07:50:42;;;;;;;5.70;5.40;;;20.60;99.90;;;;;;5032133;28;20449;-84
2022/09/06 07:53:09;;;;;;;5.53;5.13;;;20.60;99.90;;;;;;5031655;28;20455;-85
2022/09/06 07:55:37;;;;;;;5.50;5.07;;;20.70;99.90;;;;;;5031075;28;20466;-84
2022/09/06 07:58:04;;;;;;;5.63;5.17;;;20.70;99.90;;;;;;5031216;28;20454;-84
2022/09/06 08:00:31;;;;;;;5.37;5.07;;;20.70;99.90;;;;;;5031437;28;20457;-84
2022/09/06 08:02:58;;;;;;;5.57;5.07;;;20.80;99.90;;;;;;5030884;28;20459;-85
2022/09/06 08:05:25;;;;;;;5.50;5.03;;;20.90;99.90;;;;;;5031610;28;20477;-85
2022/09/06 08:07:52;;;;;;;5.17;4.73;;;20.90;99.90;;;;;;5031725;28;20482;-84
2022/09/06 08:10:19;;;;;;;7.83;4.70;;;21.10;99.90;;;;;;5031313;28;20447;-85
2022/09/06 08:12:47;;;;;;;5.17;4.77;;;21.20;99.90;;;;;;5031805;28;20446;-85
2022/09/06 08:15:13;;;;;;;5.13;4.63;;;21.20;99.90;;;;;;5030993;28;20475;-85
2022/09/06 08:17:40;;;;;;;6.47;4.83;;;21.30;99.90;;;;;;5030355;28;20444;-84
2022/09/06 08:20:08;;;;;;;4.73;4.33;;;21.40;99.90;;;;;;5031256;28;20451;-84
2022/09/06 08:22:34;;;;;;;5.47;5.00;;;21.50;99.90;;;;;;5031247;28;20481;-84
2022/09/06 08:25:01;;;;;;;4.83;4.43;;;21.60;99.90;;;;;;5031075;28;20477;-85
2022/09/06 08:27:28;;;;;;;5.00;4.60;;;21.70;99.90;;;;;;5030194;28;20449;-84
2022/09/06 08:29:56;;;;;;;5.67;5.07;;;21.90;99.90;;;;;;5015392;28;20510;-84
2022/09/06 08:32:23;;;;;;;4.53;4.13;;;22.00;99.90;;;;;;5015079;28;20454;-84
2022/09/06 08:34:50;;;;;;;4.40;4.10;;;22.00;99.90;;;;;;5015285;28;20481;-84
2022/09/06 08:37:16;;;;;;;4.70;4.40;;;22.10;99.90;;;;;;5015352;28;20451;-84
2022/09/06 08:39:43;;;;;;;5.00;4.60;;;22.30;99.90;;;;;;5015297;28;20442;-84
2022/09/06 08:42:12;;;;;;;5.00;4.60;;;22.40;99.90;;;;;;5015548;28;20457;-84
2022/09/06 08:44:43;;;;;;;4.67;4.03;;;22.50;99.90;;;;;;5015249;28;20556;-84
2022/09/06 08:47:13;;;;;;;4.27;3.80;;;22.50;99.90;;;;;;5015738;28;20487;-84
2022/09/06 08:49:43;;;;;;;4.30;4.00;;;22.70;99.90;;;;;;5014685;28;20488;-84
2022/09/06 08:52:41;;;;;;;4.90;4.50;;;22.70;99.90;;;;;;5015416;28;20512;-85
2022/09/06 08:55:29;;;;;;;5.23;4.73;;;22.90;99.90;;;;;;5014866;28;20486;-84
2022/09/06 08:58:09;;;;;;;5.07;4.70;;;23.00;99.90;;;;;;5015365;28;20449;-85
2022/09/06 09:00:38;;;;;;;8.50;5.13;;;23.20;99.90;;;;;;5015307;28;20442;-84
2022/09/06 09:03:11;;;;;;;4.87;4.40;;;23.30;99.90;;;;;;5015108;28;20807;-84
2022/09/06 09:05:40;;;;;;;5.40;5.00;;;23.40;99.90;;;;;;5029170;28;20474;-84
2022/09/06 09:08:16;;;;;;;5.07;4.67;;;23.50;99.90;;;;;;5014575;28;20492;-84
2022/09/06 09:10:47;;;;;;;7.13;4.93;;;23.70;99.90;;;;;;5015003;28;20916;-84
2022/09/06 09:13:22;;;;;;;5.10;4.70;;;23.80;99.90;;;;;;5015284;28;20434;-85
2022/09/06 09:15:48;;;;;;;5.20;4.70;;;24.00;99.90;;;;;;5015657;28;20470;-84
2022/09/06 09:18:23;;;;;;;5.27;4.40;;;24.10;99.90;;;;;;5015108;28;20780;-84
2022/09/06 09:20:50;;;;;;;5.43;4.90;;;24.30;99.90;;;;;;5015875;28;20439;-85
2022/09/06 09:23:17;;;;;;;6.20;4.27;;;24.60;99.90;;;;;;5015666;28;20453;-84
2022/09/06 09:25:46;;;;;;;5.13;4.73;;;24.90;99.90;;;;;;5015848;28;20481;-85
2022/09/06 09:28:17;;;;;;;6.87;5.03;;;25.20;99.90;;;;;;5015408;28;20561;-84
2022/09/06 09:30:47;;;;;;;8.13;4.40;;;25.50;99.90;;;;;;5015054;28;20436;-84
2022/09/06 09:33:28;;;;;;;7.07;5.43;;;25.70;99.90;;;;;;5015544;28;20448;-85
2022/09/06 09:35:55;;;;;;;5.43;4.43;;;25.80;99.90;;;;;;5013942;28;20475;-85
2022/09/06 09:38:26;;;;;;;4.80;4.50;;;25.80;99.60;;;;;;5014843;28;20810;-85
2022/09/06 09:40:54;;;;;;;4.80;4.50;;;26.00;99.90;;;;;;5014416;28;20943;-85
2022/09/06 09:43:23;;;;;;;4.03;3.73;;;26.00;99.50;;;;;;5014787;28;20479;-85
2022/09/06 09:46:17;;;;;;;6.60;4.80;;;26.10;99.90;;;;;;5014191;28;20470;-85
2022/09/06 09:49:00;;;;;;;7.50;4.90;;;26.10;99.60;;;;;;5017942;28;20499;-85
2022/09/06 09:51:27;;;;;;;6.10;5.00;;;26.10;99.60;;;;;;5018161;28;20436;-85
2022/09/06 09:53:56;;;;;;;4.83;4.43;;;26.20;99.40;;;;;;5018254;28;20464;-84
2022/09/06 09:56:36;;;;;;;5.63;4.67;;;26.30;98.70;;;;;;5018225;28;20476;-85
2022/09/06 09:59:15;;;;;;;6.70;5.07;;;26.40;98.80;;;;;;5017656;28;20430;-85
2022/09/06 10:01:42;;;;;;;5.13;4.63;;;26.50;98.70;;;;;;5032811;28;20426;-83
2022/09/06 10:04:16;;;;;;;5.70;5.10;;;26.60;98.50;;;;;;5018390;28;20457;-85
2022/09/06 10:06:43;;;;;;;6.40;4.37;;;26.70;98.40;;;;;;5017995;28;20446;-86
2022/09/06 10:09:18;;;;;;;6.37;5.20;;;26.80;97.80;;;;;;5017295;28;20491;-84
2022/09/06 10:11:52;;;;;;;6.10;3.93;;;27.00;98.00;;;;;;5017421;28;20439;-84
2022/09/06 10:14:27;;;;;;;5.03;4.63;;;27.20;97.90;;;;;;5017444;28;20447;-85
2022/09/06 10:16:53;;;;;;;4.30;3.83;;;27.40;97.50;;;;;;5017992;28;20705;-85
2022/09/06 10:19:38;;;;;;;7.20;5.10;;;27.50;96.10;;;;;;5018355;28;20444;-84
2022/09/06 10:22:31;;;;;;;7.47;4.50;;;27.70;96.20;;;;;;5018999;28;20545;-84
2022/09/06 10:25:38;;;;;;;9.80;5.37;;;27.80;94.90;;;;;;5014246;28;20494;-85
2022/09/06 10:28:35;;;;;;;5.03;4.40;;;27.90;95.00;;;;;;5017033;28;20436;-84
2022/09/06 10:31:56;;;;;;;6.20;5.40;;;28.10;94.70;;;;;;5013581;28;20472;-85
2022/09/06 10:35:03;;;;;;;6.10;5.30;;;28.20;95.10;;;;;;4992452;28;20464;-84
2022/09/06 10:37:43;;;;;;;6.77;5.50;;;28.20;93.90;;;;;;5016648;28;20520;-86
2022/09/06 10:40:11;;;;;;;5.20;4.80;;;28.40;93.80;;;;;;5016790;28;20437;-84
2022/09/06 10:42:45;;;;;;;5.70;5.20;;;28.40;94.10;;;;;;5017199;28;20449;-85
2022/09/06 10:45:28;;;;;;;5.70;5.17;;;28.40;93.50;;;;;;5016554;28;20465;-85
2022/09/06 10:48:00;;;;;;;6.27;5.20;;;28.50;94.40;;;;;;5016158;28;20457;-85
2022/09/06 10:50:38;;;;;;;7.70;4.40;;;28.50;93.70;;;;;;5016697;28;20430;-84
2022/09/06 10:53:10;;;;;;;6.23;5.60;;;28.40;93.50;;;;;;5016786;28;20460;-85
2022/09/06 10:55:40;;;;;;;5.83;5.33;;;28.40;93.60;;;;;;5016321;28;20499;-85
2022/09/06 10:58:10;;;;;;;6.20;5.30;;;28.40;93.70;;;;;;5029409;28;20424;-87
2022/09/06 11:00:45;;;;;;;5.70;5.10;;;28.40;93.70;;;;;;5017990;28;20433;-84
2022/09/06 11:03:20;;;;;;;5.47;4.90;;;28.30;93.70;;;;;;5016734;28;20474;-85
2022/09/06 11:05:52;;;;;;;5.77;5.27;;;28.20;93.80;;;;;;5016392;28;20466;-84
2022/09/06 11:08:24;;;;;;;9.20;4.93;;;28.30;94.10;;;;;;5015896;28;20449;-84
2022/09/06 11:10:54;;;;;;;7.60;5.20;;;28.30;93.50;;;;;;5016917;28;20427;-85
2022/09/06 11:13:22;;;;;;;5.30;4.77;;;28.30;93.30;;;;;;5016431;28;20452;-84
2022/09/06 11:15:55;;;;;;;6.77;6.17;;;28.30;93.60;;;;;;5016995;28;20492;-86
2022/09/06 11:18:27;;;;;;;5.20;4.60;;;28.20;93.30;;;;;;5015892;28;20462;-85
2022/09/06 11:21:12;;;;;;;9.43;5.67;;;28.20;93.60;;;;;;5016256;28;20437;-85
2022/09/06 11:23:48;;;;;;;5.60;4.53;;;28.20;93.90;;;;;;5016540;28;20467;-84
2022/09/06 11:26:36;;;;;;;6.33;5.30;;;28.20;94.00;;;;;;5016167;28;20474;-85
2022/09/06 11:29:07;;;;;;;9.77;5.43;;;28.10;94.20;;;;;;5015835;28;20490;-84
2022/09/06 11:31:49;;;;;;;5.87;5.20;;;28.20;94.30;;;;;;5016186;28;20471;-84
2022/09/06 11:34:21;;;;;;;5.50;4.87;;;28.50;93.90;;;;;;5016269;28;20459;-84
2022/09/06 11:36:51;;;;;;;4.50;4.10;;;28.70;93.30;;;;;;5016172;28;20431;-85
2022/09/06 11:39:27;;;;;;;6.30;4.47;;;29.00;93.00;;;;;;5016082;28;20533;-84
2022/09/06 11:41:54;;;;;;;4.40;4.10;;;29.30;92.00;;;;;;5015906;28;20462;-84
2022/09/06 11:45:09;;;;;;;8.33;4.87;;;29.60;92.50;;;;;;5016106;28;20470;-84
2022/09/06 11:47:38;;;;;;;9.40;4.60;;;30.10;91.10;;;;;;5015247;28;20475;-85
2022/09/06 11:50:51;;;;;;;5.10;3.93;;;30.50;90.60;;;;;;5015440;28;20474;-85
2022/09/06 11:53:19;;;;;;;6.00;4.67;;;30.70;89.60;;;;;;4997748;28;20455;-84
2022/09/06 11:55:48;;;;;;;5.00;4.50;;;31.00;87.60;;;;;;5028410;28;20464;-83
2022/09/06 11:58:26;;;;;;;5.33;4.93;;;31.40;89.20;;;;;;5015722;28;20443;-84
2022/09/06 12:01:26;;;;;;;4.27;3.87;;;32.10;85.00;;;;;;5015493;28;20443;-85
2022/09/06 12:04:05;;;;;;;6.00;4.63;;;32.70;81.70;;;;;;5016004;28;20461;-82
2022/09/06 12:06:34;;;;;;;5.57;5.03;;;33.40;81.10;;;;;;5016479;28;20456;-82
2022/09/06 12:09:25;;;;;;;5.47;4.20;;;33.80;76.00;;;;;;5014373;28;20999;-83
2022/09/06 12:11:52;;;;;;;4.17;3.50;;;34.00;73.70;;;;;;5015330;28;20427;-81
2022/09/06 12:14:31;;;;;;;4.33;3.93;;;34.50;75.00;;;;;;5015654;28;20454;-81
2022/09/06 12:17:26;;;;;;;4.17;3.87;;;35.00;68.60;;;;;;5014902;28;20434;-81
2022/09/06 12:20:04;;;;;;;4.83;4.43;;;35.40;66.20;;;;;;5015547;28;20431;-82
2022/09/06 12:22:55;;;;;;;4.80;3.77;;;35.80;65.00;;;;;;5015416;28;20454;-82
2022/09/06 12:25:57;;;;;;;5.10;3.10;;;35.80;65.60;;;;;;5004557;28;20485;-82
2022/09/06 12:28:33;;;;;;;5.80;3.73;;;35.70;63.20;;;;;;5007300;28;20457;-82
2022/09/06 12:31:00;;;;;;;4.53;3.53;;;35.90;62.50;;;;;;5014763;28;20947;-83
2022/09/06 12:33:31;;;;;;;4.20;3.83;;;36.10;61.20;;;;;;5014726;28;20990;-82
2022/09/06 12:36:13;;;;;;;5.63;3.63;;;36.00;60.30;;;;;;5014939;28;20834;-82
2022/09/06 12:38:40;;;;;;;5.13;3.70;;;36.30;60.20;;;;;;5014958;28;20466;-82
2022/09/06 12:41:08;;;;;;;8.53;3.40;;;36.60;59.00;;;;;;5014543;28;20446;-81
2022/09/06 12:43:39;;;;;;;6.50;3.60;;;36.90;57.90;;;;;;5014732;28;20443;-81
2022/09/06 12:46:07;;;;;;;5.20;3.60;;;37.30;57.80;;;;;;5014710;28;20473;-81
2022/09/06 12:48:40;;;;;;;4.47;3.57;;;37.30;56.40;;;;;;5014450;28;20450;-83
2022/09/06 12:51:12;;;;;;;6.17;3.33;;;37.30;56.40;;;;;;5024733;28;20442;-84
2022/09/06 12:53:39;;;;;;;3.60;3.10;;;37.60;56.90;;;;;;5020810;28;20865;-82
2022/09/06 12:56:10;;;;;;;4.20;3.70;;;37.70;54.00;;;;;;5018154;28;20474;-82
2022/09/06 12:58:38;;;;;;;7.17;3.83;;;37.30;53.70;;;;;;5015029;28;20549;-81
2022/09/06 13:01:12;;;;;;;4.20;3.10;;;37.00;53.60;;;;;;5015165;28;20812;-82
2022/09/06 13:03:43;;;;;;;6.73;3.90;;;36.40;54.50;;;;;;5014996;28;20456;-83
2022/09/06 13:06:17;;;;;;;4.40;4.00;;;35.90;55.10;;;;;;5014497;28;20995;-82
2022/09/06 13:08:48;;;;;;;3.70;3.50;;;35.30;55.60;;;;;;5014280;28;20446;-81
2022/09/06 13:11:22;;;;;;;3.60;3.30;;;34.80;56.40;;;;;;5015074;28;20438;-81
2022/09/06 13:13:51;;;;;;;4.33;3.87;;;34.20;56.60;;;;;;5014845;28;20436;-82
2022/09/06 13:16:21;;;;;;;6.43;3.77;;;33.60;57.80;;;;;;5014559;28;20480;-82
2022/09/06 13:18:47;;;;;;;4.33;3.47;;;33.10;58.80;;;;;;5014860;28;20450;-83
2022/09/06 13:21:26;;;;;;;9.00;4.67;;;32.60;59.40;;;;;;5017618;28;20454;-82
2022/09/06 13:23:53;;;;;;;5.33;4.83;;;31.20;66.10;;;;;;5018820;28;20444;-81
2022/09/06 13:26:34;;;;;;;5.23;4.83;;;30.60;70.10;;;;;;5018816;28;20866;-81
2022/09/06 13:29:21;;;;;;;5.50;5.00;;;29.70;74.10;;;;;;5018136;28;20825;-83
2022/09/06 13:31:49;;;;;;;4.90;4.40;;;29.00;79.20;;;;;;5018368;28;20452;-82
2022/09/06 13:34:21;;;;;;;5.50;5.00;;;28.70;83.20;;;;;;5018617;28;20468;-82
2022/09/06 13:36:50;;;;;;;5.70;5.10;;;28.00;85.80;;;;;;5018623;28;20448;-83
2022/09/06 13:39:30;;;;;;;6.23;5.50;;;27.70;89.60;;;;;;5018433;28;20451;-82
2022/09/06 13:42:01;;;;;;;6.20;5.60;;;27.30;92.40;;;;;;5017978;28;20453;-83
2022/09/06 13:44:31;;;;;;;6.73;5.33;;;27.00;94.40;;;;;;5018428;28;20483;-83
2022/09/06 13:46:57;;;;;;;6.03;5.43;;;26.90;95.40;;;;;;5023372;28;20501;-84
2022/09/06 13:49:25;;;;;;;5.57;5.13;;;26.60;96.30;;;;;;5027364;28;20478;-81
2022/09/06 13:51:53;;;;;;;6.20;5.70;;;26.60;98.40;;;;;;5018395;28;20451;-83
2022/09/06 13:54:21;;;;;;;6.50;5.40;;;26.50;98.70;;;;;;5017843;28;20452;-83
2022/09/06 13:56:48;;;;;;;7.10;4.90;;;26.60;99.60;;;;;;5017685;28;20940;-83
2022/09/06 13:59:17;;;;;;;5.77;5.30;;;26.60;99.20;;;;;;5017983;28;20526;-83
2022/09/06 14:01:47;;;;;;;6.00;5.47;;;26.60;98.30;;;;;;5018392;28;20450;-83
2022/09/06 14:04:18;;;;;;;6.07;4.80;;;26.70;98.30;;;;;;5018149;28;20453;-83
2022/09/06 14:06:45;;;;;;;5.73;5.13;;;26.70;97.90;;;;;;5017457;28;20451;-84
2022/09/06 14:09:12;;;;;;;6.23;5.83;;;26.90;98.00;;;;;;5018025;28;20836;-83
2022/09/06 14:11:39;;;;;;;5.60;5.20;;;27.00;97.10;;;;;;5018112;28;20457;-81
2022/09/06 14:14:06;;;;;;;5.27;4.80;;;27.20;97.70;;;;;;5018070;28;20443;-82
2022/09/06 14:16:34;;;;;;;6.53;5.10;;;27.40;97.10;;;;;;5018258;28;20461;-83
2022/09/06 14:19:01;;;;;;;6.03;4.77;;;27.80;97.90;;;;;;5024014;28;20448;-82
2022/09/06 14:21:28;;;;;;;6.23;5.60;;;28.20;96.70;;;;;;5024969;28;20805;-81
2022/09/06 14:23:55;;;;;;;7.93;4.40;;;28.70;94.80;;;;;;5024427;28;20806;-82
2022/09/06 14:26:22;;;;;;;5.20;4.80;;;29.00;94.30;;;;;;5023861;28;20548;-80
2022/09/06 14:28:49;;;;;;;6.50;4.70;;;29.20;93.70;;;;;;5033556;28;20458;-82
2022/09/06 14:31:19;;;;;;;6.20;5.20;;;29.40;93.10;;;;;;5039884;28;20484;-82
2022/09/06 14:33:47;;;;;;;6.43;5.50;;;29.70;91.80;;;;;;5039647;28;20448;-82
2022/09/06 14:36:16;;;;;;;4.57;4.17;;;30.20;92.10;;;;;;5039862;28;20475;-82
2022/09/06 14:38:45;;;;;;;6.07;5.47;;;30.50;91.40;;;;;;5039628;28;20458;-82
2022/09/06 14:41:13;;;;;;;6.67;5.20;;;31.10;90.30;;;;;;5039666;28;20454;-82
2022/09/06 14:43:41;;;;;;;6.50;3.93;;;32.00;87.60;;;;;;5040266;28;20448;-82
2022/09/06 14:46:11;;;;;;;5.23;4.77;;;33.20;85.20;;;;;;5039485;28;20472;-82
2022/09/06 14:48:38;;;;;;;4.90;4.10;;;33.70;80.20;;;;;;5039158;28;20450;-82
2022/09/06 14:51:11;;;;;;;5.43;4.23;;;33.80;76.70;;;;;;5039371;28;20479;-82
2022/09/06 14:53:39;;;;;;;4.60;3.70;;;33.50;72.50;;;;;;5039346;28;20545;-82
2022/09/06 14:56:06;;;;;;;4.60;3.87;;;33.70;74.00;;;;;;5039188;28;20453;-82
2022/09/06 14:58:34;;;;;;;4.73;4.30;;;33.80;72.40;;;;;;5038824;28;20494;-82
2022/09/06 15:01:12;;;;;;;4.40;3.97;;;33.40;72.30;;;;;;5038899;28;20457;-82
2022/09/06 15:03:39;;;;;;;5.13;4.63;;;33.00;71.00;;;;;;5038731;28;20480;-82
2022/09/06 15:06:08;;;;;;;4.17;3.80;;;32.90;71.60;;;;;;5038463;28;20481;-82
2022/09/06 15:08:36;;;;;;;4.80;4.40;;;32.80;73.60;;;;;;5038039;28;20441;-82
2022/09/06 15:11:06;;;;;;;5.00;4.50;;;32.40;77.20;;;;;;5038573;28;20479;-82
2022/09/06 15:13:35;;;;;;;5.13;4.23;;;32.00;77.60;;;;;;5038666;28;20439;-82
2022/09/06 15:16:02;;;;;;;7.97;5.03;;;31.70;78.60;;;;;;5038436;28;20499;-81
2022/09/06 15:18:29;;;;;;;4.90;4.50;;;31.50;77.80;;;;;;5038277;28;20443;-81
2022/09/06 15:20:56;;;;;;;4.33;3.93;;;31.70;76.60;;;;;;5038362;28;20549;-82
2022/09/06 15:23:26;;;;;;;4.50;4.20;;;32.00;75.70;;;;;;5038840;28;20430;-82
2022/09/06 15:25:53;;;;;;;5.80;4.30;;;32.00;74.20;;;;;;5038512;28;20468;-82
2022/09/06 15:28:20;;;;;;;5.07;4.00;;;31.90;74.00;;;;;;5038433;28;20466;-82
2022/09/06 15:30:47;;;;;;;5.10;4.73;;;31.60;73.80;;;;;;5038429;28;20502;-82
2022/09/06 15:33:14;;;;;;;4.73;4.30;;;31.10;73.80;;;;;;5038635;28;20455;-82
2022/09/06 15:35:42;;;;;;;5.77;4.17;;;30.70;75.90;;;;;;5038543;28;20464;-82
2022/09/06 15:38:09;;;;;;;4.03;3.73;;;30.60;76.20;;;;;;5038386;28;20471;-82
2022/09/06 15:40:37;;;;;;;4.77;3.90;;;30.40;76.40;;;;;;5039308;28;20439;-81
2022/09/06 15:43:04;;;;;;;5.63;4.40;;;30.30;77.80;;;;;;5038380;28;20442;-82
2022/09/06 15:45:45;;;;;;;7.90;5.07;;;30.10;78.00;;;;;;5037883;28;20469;-82
2022/09/06 15:48:13;;;;;;;5.67;5.17;;;30.10;79.30;;;;;;5038061;28;20458;-82
2022/09/06 15:50:40;;;;;;;5.30;4.80;;;30.00;79.40;;;;;;5032657;28;20554;-82
2022/09/06 15:53:07;;;;;;;5.03;3.97;;;30.10;80.30;;;;;;5029309;28;20456;-83
2022/09/06 15:58:19;;;;;;;3.77;3.57;;;30.00;80.50;;;;;;5028678;28;20429;-83
2022/09/06 16:00:46;;;;;;;5.70;5.17;;;30.00;80.70;;;;;;5028054;28;20450;-83
2022/09/06 16:03:13;;;;;;;5.43;4.40;;;29.90;81.10;;;;;;5028321;28;20473;-83
2022/09/06 16:05:40;;;;;;;6.77;4.93;;;29.80;81.20;;;;;;5028133;28;20481;-83